createdAt,value
2019-05-23T00:00:02.185Z,3.60
2019-05-23T00:00:07.287Z,3.60
2019-05-23T00:00:12.187Z,3.60
2019-05-23T00:00:17.188Z,3.60
2019-05-23T00:00:22.190Z,3.60
2019-05-23T00:00:27.701Z,3.60
2019-05-23T00:00:32.198Z,4.18
2019-05-23T00:00:37.192Z,3.79
2019-05-23T00:00:42.223Z,3.66
2019-05-23T00:00:47.195Z,3.62
2019-05-23T00:00:52.197Z,4.18
2019-05-23T00:00:57.312Z,3.79
2019-05-23T00:01:02.198Z,3.66
2019-05-23T00:01:07.231Z,3.62
2019-05-23T00:01:12.217Z,3.61
2019-05-23T00:01:17.201Z,3.60
2019-05-23T00:01:22.201Z,3.60
2019-05-23T00:01:27.202Z,3.90
2019-05-23T00:01:32.204Z,3.70
2019-05-23T00:01:37.204Z,3.63
2019-05-23T00:01:42.737Z,3.61
2019-05-23T00:01:47.207Z,3.60
2019-05-23T00:01:52.207Z,3.60
2019-05-23T00:01:58.919Z,3.60
2019-05-23T00:02:02.209Z,3.60
2019-05-23T00:02:07.211Z,3.60
2019-05-23T00:02:12.215Z,3.60
2019-05-23T00:02:17.811Z,3.60
2019-05-23T00:02:22.212Z,3.60
2019-05-23T00:02:27.381Z,3.60
2019-05-23T00:02:32.215Z,4.36
2019-05-23T00:02:37.216Z,3.85
2019-05-23T00:02:42.221Z,3.68
2019-05-23T00:02:47.217Z,4.35
2019-05-23T00:02:52.729Z,4.67
2019-05-23T00:02:57.219Z,4.97
2019-05-23T00:03:02.220Z,4.80
2019-05-23T00:03:07.221Z,3.99
2019-05-23T00:03:12.224Z,3.73
2019-05-23T00:03:17.223Z,3.64
2019-05-23T00:03:22.227Z,4.33
2019-05-23T00:03:27.226Z,3.84
2019-05-23T00:03:32.238Z,3.68
2019-05-23T00:03:37.228Z,3.63
2019-05-23T00:03:42.229Z,3.61
2019-05-23T00:03:47.229Z,4.32
2019-05-23T00:03:52.230Z,4.21
2019-05-23T00:03:57.231Z,3.80
2019-05-23T00:04:02.232Z,3.67
2019-05-23T00:04:07.233Z,3.62
2019-05-23T00:04:12.235Z,4.18
2019-05-23T00:04:17.235Z,4.55
2019-05-23T00:04:22.235Z,3.91
2019-05-23T00:04:27.239Z,3.70
2019-05-23T00:04:32.238Z,3.63
2019-05-23T00:04:37.239Z,3.61
2019-05-23T00:04:42.240Z,3.60
2019-05-23T00:04:47.622Z,4.18
2019-05-23T00:04:52.243Z,4.08
2019-05-23T00:04:57.244Z,3.76
2019-05-23T00:05:02.626Z,3.65
2019-05-23T00:05:07.509Z,3.62
2019-05-23T00:05:12.246Z,4.64
2019-05-23T00:05:17.248Z,5.18
2019-05-23T00:05:22.248Z,4.41
2019-05-23T00:05:27.248Z,3.87
2019-05-23T00:05:32.615Z,3.69
2019-05-23T00:05:37.252Z,3.63
2019-05-23T00:05:42.254Z,3.61
2019-05-23T00:05:47.254Z,4.47
2019-05-23T00:05:52.255Z,4.18
2019-05-23T00:05:57.253Z,3.79
2019-05-23T00:06:02.257Z,3.66
2019-05-23T00:06:07.258Z,4.86
2019-05-23T00:06:12.283Z,4.96
2019-05-23T00:06:17.259Z,5.38
2019-05-23T00:06:22.259Z,4.48
2019-05-23T00:06:27.334Z,3.89
2019-05-23T00:06:32.262Z,3.69
2019-05-23T00:06:37.263Z,4.00
2019-05-23T00:06:42.268Z,3.73
2019-05-23T00:06:47.263Z,4.10
2019-05-23T00:06:52.268Z,3.77
2019-05-23T00:06:57.266Z,3.65
2019-05-23T00:07:02.267Z,3.62
2019-05-23T00:07:07.994Z,3.61
2019-05-23T00:07:12.619Z,3.60
2019-05-23T00:07:17.270Z,3.60
2019-05-23T00:07:22.275Z,3.60
2019-05-23T00:07:27.272Z,3.60
2019-05-23T00:07:32.276Z,3.97
2019-05-23T00:07:37.315Z,3.72
2019-05-23T00:07:42.905Z,3.64
2019-05-23T00:07:47.287Z,3.91
2019-05-23T00:07:52.315Z,3.70
2019-05-23T00:07:57.276Z,3.63
2019-05-23T00:08:02.361Z,3.91
2019-05-23T00:08:07.279Z,3.70
2019-05-23T00:08:12.279Z,4.00
2019-05-23T00:08:17.281Z,4.31
2019-05-23T00:08:22.341Z,3.83
2019-05-23T00:08:27.282Z,4.62
2019-05-23T00:08:32.284Z,4.51
2019-05-23T00:08:37.288Z,4.19
2019-05-23T00:08:42.285Z,3.79
2019-05-23T00:08:47.563Z,3.66
2019-05-23T00:08:52.288Z,3.62
2019-05-23T00:08:57.288Z,4.18
2019-05-23T00:09:02.293Z,4.09
2019-05-23T00:09:07.291Z,3.76
2019-05-23T00:09:12.296Z,3.65
2019-05-23T00:09:17.294Z,3.62
2019-05-23T00:09:22.297Z,3.61
2019-05-23T00:09:27.295Z,3.60
2019-05-23T00:09:32.296Z,3.97
2019-05-23T00:09:37.420Z,4.59
2019-05-23T00:09:42.299Z,4.80
2019-05-23T00:09:47.318Z,4.71
2019-05-23T00:09:52.307Z,5.00
2019-05-23T00:09:57.306Z,5.30
2019-05-23T00:10:02.303Z,4.16
2019-05-23T00:10:07.305Z,3.78
2019-05-23T00:10:12.306Z,4.12
2019-05-23T00:10:17.304Z,4.07
2019-05-23T00:10:22.309Z,3.75
2019-05-23T00:10:27.306Z,4.02
2019-05-23T00:10:32.750Z,3.74
2019-05-23T00:10:37.314Z,3.64
2019-05-23T00:10:42.313Z,4.56
2019-05-23T00:10:47.313Z,4.49
2019-05-23T00:10:52.311Z,4.26
2019-05-23T00:10:57.314Z,5.00
2019-05-23T00:11:02.313Z,4.35
2019-05-23T00:11:07.314Z,3.85
2019-05-23T00:11:12.951Z,4.40
2019-05-23T00:11:17.317Z,3.86
2019-05-23T00:11:22.319Z,3.69
2019-05-23T00:11:27.318Z,3.92
2019-05-23T00:11:32.485Z,4.79
2019-05-23T00:11:37.320Z,3.99
2019-05-23T00:11:42.331Z,3.73
2019-05-23T00:11:47.322Z,4.36
2019-05-23T00:11:52.324Z,4.57
2019-05-23T00:11:57.324Z,3.92
2019-05-23T00:12:02.344Z,3.70
2019-05-23T00:12:07.401Z,4.21
2019-05-23T00:12:12.327Z,5.35
2019-05-23T00:12:17.854Z,4.17
2019-05-23T00:12:22.336Z,5.45
2019-05-23T00:12:27.334Z,6.63
2019-05-23T00:12:32.330Z,5.54
2019-05-23T00:12:37.332Z,4.60
2019-05-23T00:12:42.334Z,3.93
2019-05-23T00:12:47.337Z,5.18
2019-05-23T00:12:52.350Z,6.54
2019-05-23T00:12:57.339Z,6.98
2019-05-23T00:13:02.340Z,6.41
2019-05-23T00:13:07.343Z,5.28
2019-05-23T00:13:12.622Z,5.99
2019-05-23T00:13:17.341Z,6.14
2019-05-23T00:13:22.340Z,6.13
2019-05-23T00:13:27.355Z,5.15
2019-05-23T00:13:32.344Z,4.68
2019-05-23T00:13:37.343Z,4.71
2019-05-23T00:13:42.343Z,5.44
2019-05-23T00:13:47.345Z,4.96
2019-05-23T00:13:52.350Z,4.05
2019-05-23T00:13:57.348Z,3.75
2019-05-23T00:14:02.350Z,4.37
2019-05-23T00:14:07.348Z,5.55
2019-05-23T00:14:12.350Z,5.54
2019-05-23T00:14:17.352Z,6.65
2019-05-23T00:14:22.355Z,7.02
2019-05-23T00:14:27.352Z,5.81
2019-05-23T00:14:32.354Z,5.99
2019-05-23T00:14:37.355Z,6.80
2019-05-23T00:14:42.358Z,5.59
2019-05-23T00:14:47.359Z,5.43
2019-05-23T00:14:52.357Z,5.53
2019-05-23T00:14:57.359Z,4.99
2019-05-23T00:15:02.361Z,5.09
2019-05-23T00:15:07.761Z,4.38
2019-05-23T00:15:12.376Z,6.28
2019-05-23T00:15:17.369Z,5.60
2019-05-23T00:15:22.364Z,4.98
2019-05-23T00:15:27.367Z,6.01
2019-05-23T00:15:32.373Z,4.68
2019-05-23T00:15:37.366Z,4.53
2019-05-23T00:15:42.368Z,5.75
2019-05-23T00:15:47.371Z,5.02
2019-05-23T00:15:53.003Z,6.49
2019-05-23T00:15:57.371Z,6.10
2019-05-23T00:16:02.717Z,4.42
2019-05-23T00:16:07.373Z,3.87
2019-05-23T00:16:12.374Z,5.35
2019-05-23T00:16:17.388Z,6.59
2019-05-23T00:16:22.376Z,6.28
2019-05-23T00:16:27.377Z,4.48
2019-05-23T00:16:32.379Z,6.31
2019-05-23T00:16:37.799Z,6.91
2019-05-23T00:16:42.382Z,5.92
2019-05-23T00:16:47.384Z,6.78
2019-05-23T00:16:52.383Z,7.06
2019-05-23T00:16:57.385Z,7.16
2019-05-23T00:17:02.403Z,7.19
2019-05-23T00:17:07.384Z,6.83
2019-05-23T00:17:12.572Z,6.71
2019-05-23T00:17:17.386Z,6.32
2019-05-23T00:17:22.867Z,6.91
2019-05-23T00:17:27.388Z,7.11
2019-05-23T00:17:32.890Z,7.17
2019-05-23T00:17:37.392Z,7.19
2019-05-23T00:17:42.391Z,7.20
2019-05-23T00:17:47.395Z,6.25
2019-05-23T00:17:52.393Z,6.89
2019-05-23T00:17:57.478Z,7.10
2019-05-23T00:18:02.394Z,5.99
2019-05-23T00:18:07.522Z,5.68
2019-05-23T00:18:12.406Z,6.70
2019-05-23T00:18:17.404Z,7.04
2019-05-23T00:18:22.398Z,6.57
2019-05-23T00:18:27.400Z,6.99
2019-05-23T00:18:32.403Z,7.13
2019-05-23T00:18:37.633Z,7.18
2019-05-23T00:18:42.433Z,6.90
2019-05-23T00:18:47.412Z,7.10
2019-05-23T00:18:52.406Z,7.17
2019-05-23T00:18:57.427Z,7.19
2019-05-23T00:19:02.413Z,6.48
2019-05-23T00:19:07.407Z,6.96
2019-05-23T00:19:12.423Z,6.40
2019-05-23T00:19:17.422Z,5.39
2019-05-23T00:19:22.411Z,6.15
2019-05-23T00:19:27.410Z,6.85
2019-05-23T00:19:32.412Z,6.37
2019-05-23T00:19:38.072Z,6.63
2019-05-23T00:19:42.415Z,5.54
2019-05-23T00:19:47.416Z,6.29
2019-05-23T00:19:52.420Z,4.48
2019-05-23T00:19:57.466Z,5.18
2019-05-23T00:20:02.839Z,4.12
2019-05-23T00:20:07.473Z,4.23
2019-05-23T00:20:12.471Z,3.81
2019-05-23T00:20:17.471Z,3.67
2019-05-23T00:20:22.471Z,3.62
2019-05-23T00:20:27.471Z,3.61
2019-05-23T00:20:32.539Z,3.60
2019-05-23T00:20:37.474Z,3.60
2019-05-23T00:20:42.476Z,3.60
2019-05-23T00:20:47.476Z,3.60
2019-05-23T00:20:52.477Z,3.60
2019-05-23T00:20:57.478Z,3.60
2019-05-23T00:21:02.479Z,3.60
2019-05-23T00:21:07.481Z,4.54
2019-05-23T00:21:12.481Z,3.91
2019-05-23T00:21:17.482Z,3.70
2019-05-23T00:21:22.489Z,3.63
2019-05-23T00:21:27.730Z,3.61
2019-05-23T00:21:32.485Z,3.60
2019-05-23T00:21:37.485Z,3.60
2019-05-23T00:21:42.488Z,3.60
2019-05-23T00:21:47.486Z,3.60
2019-05-23T00:21:52.491Z,3.60
2019-05-23T00:21:57.489Z,3.60
2019-05-23T00:22:02.491Z,3.60
2019-05-23T00:22:07.491Z,3.60
2019-05-23T00:22:12.492Z,3.60
2019-05-23T00:22:17.502Z,3.60
2019-05-23T00:22:22.495Z,3.60
2019-05-23T00:22:27.494Z,4.18
2019-05-23T00:22:32.496Z,4.25
2019-05-23T00:22:37.499Z,4.53
2019-05-23T00:22:42.497Z,5.24
2019-05-23T00:22:47.505Z,5.08
2019-05-23T00:22:52.504Z,4.09
2019-05-23T00:22:57.501Z,4.05
2019-05-23T00:23:02.503Z,3.75
2019-05-23T00:23:07.503Z,3.65
2019-05-23T00:23:12.503Z,3.62
2019-05-23T00:23:17.506Z,3.61
2019-05-23T00:23:22.506Z,3.60
2019-05-23T00:23:27.506Z,3.60
2019-05-23T00:23:32.508Z,2.88
2019-05-23T00:23:37.508Z,2.61
2019-05-23T00:23:42.510Z,3.28
2019-05-23T00:23:47.514Z,3.49
2019-05-23T00:23:52.511Z,3.57
2019-05-23T00:23:57.520Z,3.59
2019-05-23T00:24:02.529Z,3.60
2019-05-23T00:24:07.516Z,3.60
2019-05-23T00:24:12.516Z,3.60
2019-05-23T00:24:17.516Z,3.02
2019-05-23T00:24:22.523Z,1.86
2019-05-23T00:24:27.517Z,0.98
2019-05-23T00:24:32.521Z,0.32
2019-05-23T00:24:37.523Z,0.11
2019-05-23T00:24:42.523Z,2.16
2019-05-23T00:24:47.818Z,3.13
2019-05-23T00:24:52.553Z,3.45
2019-05-23T00:24:57.523Z,3.55
2019-05-23T00:25:02.525Z,3.58
2019-05-23T00:25:08.137Z,3.59
2019-05-23T00:25:12.527Z,3.60
2019-05-23T00:25:17.532Z,3.60
2019-05-23T00:25:22.528Z,3.60
2019-05-23T00:25:27.532Z,3.60
2019-05-23T00:25:32.531Z,3.60
2019-05-23T00:25:37.532Z,3.60
2019-05-23T00:25:42.623Z,3.60
2019-05-23T00:25:47.539Z,3.60
2019-05-23T00:25:52.538Z,2.88
2019-05-23T00:25:57.535Z,1.24
2019-05-23T00:26:02.538Z,0.41
2019-05-23T00:26:07.537Z,2.18
2019-05-23T00:26:12.540Z,3.14
2019-05-23T00:26:17.559Z,1.78
2019-05-23T00:26:22.546Z,2.43
2019-05-23T00:26:27.541Z,1.09
2019-05-23T00:26:32.543Z,0.82
2019-05-23T00:26:37.544Z,0.27
2019-05-23T00:26:42.556Z,1.03
2019-05-23T00:26:47.596Z,2.10
2019-05-23T00:26:52.545Z,3.11
2019-05-23T00:26:57.547Z,3.44
2019-05-23T00:27:02.620Z,3.55
2019-05-23T00:27:07.549Z,5.63
2019-05-23T00:27:12.550Z,4.27
2019-05-23T00:27:17.621Z,3.82
2019-05-23T00:27:22.884Z,3.67
2019-05-23T00:27:27.553Z,3.62
2019-05-23T00:27:32.556Z,3.61
2019-05-23T00:27:37.557Z,4.78
2019-05-23T00:27:42.555Z,4.74
2019-05-23T00:27:47.556Z,6.10
2019-05-23T00:27:52.561Z,5.08
2019-05-23T00:27:57.560Z,4.09
2019-05-23T00:28:02.560Z,3.76
2019-05-23T00:28:07.562Z,3.65
2019-05-23T00:28:12.562Z,3.62
2019-05-23T00:28:17.562Z,3.61
2019-05-23T00:28:22.566Z,4.90
2019-05-23T00:28:27.565Z,6.45
2019-05-23T00:28:32.568Z,4.90
2019-05-23T00:28:37.567Z,5.87
2019-05-23T00:28:42.575Z,5.47
2019-05-23T00:28:47.569Z,4.67
2019-05-23T00:28:52.774Z,3.95
2019-05-23T00:28:57.580Z,3.72
2019-05-23T00:29:02.572Z,4.76
2019-05-23T00:29:07.627Z,3.98
2019-05-23T00:29:12.573Z,5.02
2019-05-23T00:29:17.574Z,6.49
2019-05-23T00:29:22.576Z,4.55
2019-05-23T00:29:27.576Z,4.28
2019-05-23T00:29:32.658Z,3.82
2019-05-23T00:29:37.578Z,3.67
2019-05-23T00:29:42.579Z,3.62
2019-05-23T00:29:47.584Z,3.61
2019-05-23T00:29:52.590Z,3.14
2019-05-23T00:29:57.582Z,3.45
2019-05-23T00:30:02.583Z,3.55
2019-05-23T00:30:07.665Z,3.58
2019-05-23T00:30:12.593Z,3.59
2019-05-23T00:30:17.585Z,3.60
2019-05-23T00:30:22.587Z,3.60
2019-05-23T00:30:28.348Z,4.78
2019-05-23T00:30:32.589Z,4.36
2019-05-23T00:30:37.590Z,3.85
2019-05-23T00:30:42.593Z,3.68
2019-05-23T00:30:47.594Z,3.63
2019-05-23T00:30:52.592Z,2.89
2019-05-23T00:30:57.593Z,1.70
2019-05-23T00:31:02.602Z,3.70
2019-05-23T00:31:07.596Z,3.63
2019-05-23T00:31:13.237Z,3.61
2019-05-23T00:31:17.602Z,3.60
2019-05-23T00:31:22.600Z,3.60
2019-05-23T00:31:27.600Z,3.60
2019-05-23T00:31:32.975Z,3.60
2019-05-23T00:31:37.683Z,4.06
2019-05-23T00:31:42.617Z,3.75
2019-05-23T00:31:47.603Z,3.65
2019-05-23T00:31:52.606Z,3.62
2019-05-23T00:31:57.605Z,3.61
2019-05-23T00:32:02.606Z,4.32
2019-05-23T00:32:07.616Z,6.26
2019-05-23T00:32:12.616Z,6.89
2019-05-23T00:32:17.609Z,7.10
2019-05-23T00:32:22.611Z,5.87
2019-05-23T00:32:27.611Z,4.34
2019-05-23T00:32:32.613Z,4.56
2019-05-23T00:32:37.616Z,3.92
2019-05-23T00:32:42.614Z,5.25
2019-05-23T00:32:47.615Z,5.62
2019-05-23T00:32:52.621Z,4.63
2019-05-23T00:32:57.620Z,3.94
2019-05-23T00:33:02.625Z,3.71
2019-05-23T00:33:07.625Z,3.06
2019-05-23T00:33:12.626Z,3.42
2019-05-23T00:33:17.630Z,3.91
2019-05-23T00:33:22.627Z,3.70
2019-05-23T00:33:27.629Z,3.63
2019-05-23T00:33:32.628Z,3.61
2019-05-23T00:33:37.631Z,2.66
2019-05-23T00:33:42.644Z,3.29
2019-05-23T00:33:47.634Z,3.50
2019-05-23T00:33:52.635Z,2.99
2019-05-23T00:33:57.649Z,3.03
2019-05-23T00:34:02.635Z,3.41
2019-05-23T00:34:07.635Z,3.54
2019-05-23T00:34:12.638Z,3.58
2019-05-23T00:34:17.638Z,3.59
2019-05-23T00:34:23.427Z,3.60
2019-05-23T00:34:27.645Z,3.60
2019-05-23T00:34:32.640Z,3.60
2019-05-23T00:34:37.643Z,3.60
2019-05-23T00:34:42.643Z,3.60
2019-05-23T00:34:47.643Z,3.60
2019-05-23T00:34:52.644Z,3.60
2019-05-23T00:34:57.645Z,3.60
2019-05-23T00:35:02.646Z,3.31
2019-05-23T00:35:07.647Z,3.50
2019-05-23T00:35:12.649Z,3.57
2019-05-23T00:35:17.648Z,3.59
2019-05-23T00:35:22.649Z,3.60
2019-05-23T00:35:27.653Z,3.60
2019-05-23T00:35:32.656Z,3.60
2019-05-23T00:35:37.653Z,3.60
2019-05-23T00:35:42.653Z,3.60
2019-05-23T00:35:48.041Z,3.60
2019-05-23T00:35:52.656Z,3.60
2019-05-23T00:35:57.726Z,3.60
2019-05-23T00:36:02.658Z,3.60
2019-05-23T00:36:07.658Z,4.54
2019-05-23T00:36:12.663Z,5.00
2019-05-23T00:36:17.664Z,5.00
2019-05-23T00:36:22.662Z,5.39
2019-05-23T00:36:27.663Z,5.66
2019-05-23T00:36:32.665Z,4.28
2019-05-23T00:36:37.666Z,4.12
2019-05-23T00:36:42.666Z,4.35
2019-05-23T00:36:47.667Z,3.84
2019-05-23T00:36:52.670Z,3.68
2019-05-23T00:36:57.681Z,3.63
2019-05-23T00:37:02.669Z,3.61
2019-05-23T00:37:07.670Z,3.60
2019-05-23T00:37:12.677Z,3.60
2019-05-23T00:37:17.683Z,3.60
2019-05-23T00:37:22.674Z,3.60
2019-05-23T00:37:27.674Z,4.69
2019-05-23T00:37:32.676Z,4.42
2019-05-23T00:37:37.882Z,4.33
2019-05-23T00:37:42.977Z,4.41
2019-05-23T00:37:47.682Z,4.96
2019-05-23T00:37:52.679Z,4.04
2019-05-23T00:37:57.826Z,3.75
2019-05-23T00:38:02.683Z,3.65
2019-05-23T00:38:07.717Z,3.62
2019-05-23T00:38:12.683Z,3.61
2019-05-23T00:38:17.685Z,3.60
2019-05-23T00:38:22.685Z,3.60
2019-05-23T00:38:27.690Z,3.02
2019-05-23T00:38:32.687Z,3.41
2019-05-23T00:38:37.687Z,3.54
2019-05-23T00:38:42.689Z,3.12
2019-05-23T00:38:47.693Z,1.32
2019-05-23T00:38:52.691Z,0.43
2019-05-23T00:38:57.692Z,0.14
2019-05-23T00:39:02.692Z,0.05
2019-05-23T00:39:07.701Z,0.02
2019-05-23T00:39:12.694Z,0.00
2019-05-23T00:39:17.697Z,0.00
2019-05-23T00:39:22.700Z,0.46
2019-05-23T00:39:27.698Z,0.15
2019-05-23T00:39:32.699Z,0.05
2019-05-23T00:39:37.699Z,0.02
2019-05-23T00:39:42.701Z,1.76
2019-05-23T00:39:47.701Z,3.12
2019-05-23T00:39:52.731Z,3.15
2019-05-23T00:39:57.704Z,2.36
2019-05-23T00:40:02.706Z,1.53
2019-05-23T00:40:07.705Z,0.80
2019-05-23T00:40:12.707Z,0.26
2019-05-23T00:40:17.708Z,0.81
2019-05-23T00:40:22.708Z,2.68
2019-05-23T00:40:27.708Z,3.30
2019-05-23T00:40:32.710Z,3.50
2019-05-23T00:40:37.749Z,3.57
2019-05-23T00:40:42.712Z,3.59
2019-05-23T00:40:47.716Z,3.60
2019-05-23T00:40:52.890Z,3.60
2019-05-23T00:40:57.716Z,3.60
2019-05-23T00:41:02.716Z,3.60
2019-05-23T00:41:07.716Z,3.60
2019-05-23T00:41:12.717Z,3.60
2019-05-23T00:41:17.717Z,3.60
2019-05-23T00:41:22.720Z,3.60
2019-05-23T00:41:27.773Z,3.60
2019-05-23T00:41:32.722Z,3.60
2019-05-23T00:41:37.723Z,3.60
2019-05-23T00:41:42.724Z,3.60
2019-05-23T00:41:47.724Z,3.60
2019-05-23T00:41:52.725Z,3.60
2019-05-23T00:41:57.726Z,3.60
2019-05-23T00:42:02.732Z,3.60
2019-05-23T00:42:07.729Z,3.60
2019-05-23T00:42:12.731Z,3.60
2019-05-23T00:42:17.730Z,3.60
2019-05-23T00:42:22.736Z,3.60
2019-05-23T00:42:27.734Z,3.60
2019-05-23T00:42:32.733Z,3.60
2019-05-23T00:42:37.735Z,3.60
2019-05-23T00:42:42.738Z,3.60
2019-05-23T00:42:47.735Z,3.60
2019-05-23T00:42:52.740Z,3.60
2019-05-23T00:42:57.738Z,3.60
2019-05-23T00:43:02.808Z,3.60
2019-05-23T00:43:07.740Z,3.60
2019-05-23T00:43:12.741Z,3.60
2019-05-23T00:43:17.742Z,3.60
2019-05-23T00:43:22.803Z,3.60
2019-05-23T00:43:27.745Z,3.60
2019-05-23T00:43:32.745Z,3.60
2019-05-23T00:43:37.808Z,3.60
2019-05-23T00:43:42.747Z,3.60
2019-05-23T00:43:47.748Z,3.60
2019-05-23T00:43:52.748Z,3.60
2019-05-23T00:43:57.753Z,3.60
2019-05-23T00:44:02.783Z,2.88
2019-05-23T00:44:08.196Z,1.61
2019-05-23T00:44:12.757Z,0.53
2019-05-23T00:44:17.755Z,2.22
2019-05-23T00:44:22.755Z,3.15
2019-05-23T00:44:27.756Z,3.45
2019-05-23T00:44:32.756Z,3.55
2019-05-23T00:44:37.766Z,3.58
2019-05-23T00:44:42.759Z,3.59
2019-05-23T00:44:47.759Z,3.60
2019-05-23T00:44:52.982Z,3.60
2019-05-23T00:44:57.764Z,3.60
2019-05-23T00:45:03.127Z,2.88
2019-05-23T00:45:07.885Z,3.00
2019-05-23T00:45:12.974Z,1.74
2019-05-23T00:45:17.767Z,0.86
2019-05-23T00:45:22.768Z,0.28
2019-05-23T00:45:27.768Z,0.09
2019-05-23T00:45:32.785Z,0.03
2019-05-23T00:45:37.769Z,0.01
2019-05-23T00:45:42.772Z,0.00
2019-05-23T00:45:47.773Z,0.00
2019-05-23T00:45:52.772Z,0.00
2019-05-23T00:45:57.772Z,0.00
2019-05-23T00:46:02.773Z,0.00
2019-05-23T00:46:07.774Z,0.00
2019-05-23T00:46:12.775Z,0.00
2019-05-23T00:46:17.775Z,0.00
2019-05-23T00:46:22.776Z,0.00
2019-05-23T00:46:27.779Z,0.00
2019-05-23T00:46:32.779Z,0.00
2019-05-23T00:46:37.781Z,0.00
2019-05-23T00:46:42.781Z,0.00
2019-05-23T00:46:47.782Z,0.00
2019-05-23T00:46:52.784Z,0.00
2019-05-23T00:46:57.784Z,0.00
2019-05-23T00:47:02.786Z,0.00
2019-05-23T00:47:07.787Z,0.00
2019-05-23T00:47:12.787Z,0.00
2019-05-23T00:47:17.787Z,0.00
2019-05-23T00:47:22.789Z,0.00
2019-05-23T00:47:27.791Z,0.00
2019-05-23T00:47:32.791Z,0.00
2019-05-23T00:47:37.793Z,0.72
2019-05-23T00:47:42.793Z,1.53
2019-05-23T00:47:47.795Z,2.92
2019-05-23T00:47:52.799Z,3.38
2019-05-23T00:47:57.797Z,3.53
2019-05-23T00:48:02.797Z,3.58
2019-05-23T00:48:08.114Z,1.54
2019-05-23T00:48:12.798Z,2.56
2019-05-23T00:48:17.800Z,3.26
2019-05-23T00:48:22.800Z,3.49
2019-05-23T00:48:27.801Z,3.56
2019-05-23T00:48:32.911Z,3.59
2019-05-23T00:48:37.805Z,3.60
2019-05-23T00:48:42.805Z,3.60
2019-05-23T00:48:47.805Z,2.30
2019-05-23T00:48:52.807Z,1.05
2019-05-23T00:48:58.291Z,0.34
2019-05-23T00:49:02.808Z,1.87
2019-05-23T00:49:07.811Z,3.03
2019-05-23T00:49:12.811Z,3.41
2019-05-23T00:49:17.812Z,3.54
2019-05-23T00:49:22.813Z,4.76
2019-05-23T00:49:27.880Z,5.53
2019-05-23T00:49:32.814Z,5.18
2019-05-23T00:49:37.815Z,4.41
2019-05-23T00:49:42.821Z,4.23
2019-05-23T00:49:47.817Z,4.27
2019-05-23T00:49:52.819Z,4.28
2019-05-23T00:49:57.826Z,3.82
2019-05-23T00:50:02.824Z,3.97
2019-05-23T00:50:10.824Z,4.30
2019-05-23T00:50:14.866Z,4.20
2019-05-23T00:50:18.097Z,4.26
2019-05-23T00:50:22.828Z,4.28
2019-05-23T00:50:27.906Z,3.82
2019-05-23T00:50:32.827Z,3.67
2019-05-23T00:50:37.827Z,3.62
2019-05-23T00:50:51.538Z,3.61
2019-05-23T00:50:51.586Z,3.60
2019-05-23T00:50:52.831Z,3.60
2019-05-23T00:50:57.842Z,3.60
2019-05-23T00:51:02.879Z,3.60
2019-05-23T00:51:07.833Z,3.60
2019-05-23T00:51:15.993Z,3.60
2019-05-23T00:51:17.863Z,3.60
2019-05-23T00:51:22.875Z,3.60
2019-05-23T00:51:27.863Z,3.60
2019-05-23T00:51:32.857Z,3.60
2019-05-23T00:51:37.842Z,3.60
2019-05-23T00:51:42.895Z,3.60
2019-05-23T00:51:47.845Z,3.60
2019-05-23T00:51:52.843Z,3.60
2019-05-23T00:51:57.846Z,3.60
2019-05-23T00:52:02.847Z,3.60
2019-05-23T00:52:07.990Z,3.60
2019-05-23T00:52:12.980Z,3.60
2019-05-23T00:52:17.980Z,3.60
2019-05-23T00:52:22.986Z,3.60
2019-05-23T00:52:27.983Z,3.60
2019-05-23T00:52:33.001Z,3.60
2019-05-23T00:52:38.043Z,3.60
2019-05-23T00:52:42.985Z,3.60
2019-05-23T00:52:47.987Z,3.60
2019-05-23T00:52:53.059Z,3.60
2019-05-23T00:52:58.001Z,3.60
2019-05-23T00:53:03.016Z,3.60
2019-05-23T00:53:07.991Z,3.60
2019-05-23T00:53:12.992Z,4.06
2019-05-23T00:53:17.992Z,3.75
2019-05-23T00:53:22.993Z,3.65
2019-05-23T00:53:28.015Z,3.62
2019-05-23T00:53:32.995Z,3.61
2019-05-23T00:53:38.038Z,3.60
2019-05-23T00:53:43.000Z,3.60
2019-05-23T00:53:48.020Z,3.60
2019-05-23T00:53:53.079Z,3.60
2019-05-23T00:53:58.065Z,3.60
2019-05-23T00:54:03.014Z,3.60
2019-05-23T00:54:08.039Z,3.60
2019-05-23T00:54:13.036Z,3.60
2019-05-23T00:54:18.027Z,3.60
2019-05-23T00:54:23.067Z,3.60
2019-05-23T00:54:28.033Z,3.60
2019-05-23T00:54:33.034Z,3.60
2019-05-23T00:54:38.018Z,3.60
2019-05-23T00:54:43.031Z,3.60
2019-05-23T00:54:48.034Z,3.60
2019-05-23T00:54:53.056Z,3.60
2019-05-23T00:55:03.020Z,3.60
2019-05-23T00:55:08.017Z,3.60
2019-05-23T00:55:13.255Z,3.60
2019-05-23T00:55:18.248Z,3.60
2019-05-23T00:55:23.249Z,3.60
2019-05-23T00:55:28.249Z,4.06
2019-05-23T00:55:33.255Z,4.33
2019-05-23T00:55:38.251Z,4.30
2019-05-23T00:55:43.291Z,4.84
2019-05-23T00:55:48.275Z,4.01
2019-05-23T00:55:53.256Z,3.73
2019-05-23T00:55:58.286Z,3.64
2019-05-23T00:56:03.258Z,3.61
2019-05-23T00:56:08.258Z,3.60
2019-05-23T00:56:13.259Z,3.60
2019-05-23T00:56:18.266Z,3.60
2019-05-23T00:56:23.262Z,3.60
2019-05-23T00:56:28.260Z,3.60
2019-05-23T00:56:33.266Z,3.60
2019-05-23T00:56:38.266Z,3.60
2019-05-23T00:56:43.270Z,3.60
2019-05-23T00:56:48.266Z,3.60
2019-05-23T00:56:53.266Z,3.60
2019-05-23T00:56:58.599Z,3.60
2019-05-23T00:57:03.268Z,3.60
2019-05-23T00:57:08.309Z,3.60
2019-05-23T00:57:13.269Z,3.60
2019-05-23T00:57:18.270Z,3.60
2019-05-23T00:57:23.272Z,3.60
2019-05-23T00:57:28.271Z,3.60
2019-05-23T00:57:33.273Z,3.60
2019-05-23T00:57:38.276Z,3.60
2019-05-23T00:57:43.648Z,4.32
2019-05-23T00:57:48.276Z,3.84
2019-05-23T00:57:53.278Z,3.68
2019-05-23T00:57:58.278Z,3.63
2019-05-23T00:58:03.279Z,3.61
2019-05-23T00:58:08.295Z,3.60
2019-05-23T00:58:13.287Z,3.60
2019-05-23T00:58:18.287Z,3.60
2019-05-23T00:58:23.285Z,3.60
2019-05-23T00:58:28.286Z,3.60
2019-05-23T00:58:33.306Z,3.60
2019-05-23T00:58:38.287Z,3.60
2019-05-23T00:58:43.288Z,4.32
2019-05-23T00:58:48.288Z,4.92
2019-05-23T00:58:53.290Z,4.98
2019-05-23T00:58:58.291Z,5.18
2019-05-23T00:59:03.292Z,6.17
2019-05-23T00:59:08.293Z,6.40
2019-05-23T00:59:13.294Z,5.85
2019-05-23T00:59:18.363Z,4.63
2019-05-23T00:59:23.296Z,3.94
2019-05-23T00:59:28.296Z,3.71
2019-05-23T00:59:33.297Z,3.64
2019-05-23T00:59:38.318Z,4.07
2019-05-23T00:59:43.300Z,3.75
2019-05-23T00:59:48.300Z,3.65
2019-05-23T00:59:53.301Z,4.80
2019-05-23T00:59:58.302Z,4.45
2019-05-23T01:00:03.302Z,5.58
2019-05-23T01:00:08.304Z,4.62
2019-05-23T01:00:13.334Z,4.30
2019-05-23T01:00:18.306Z,3.83
2019-05-23T01:00:23.308Z,3.68
2019-05-23T01:00:28.308Z,3.62
2019-05-23T01:00:33.308Z,4.33
2019-05-23T01:00:38.310Z,3.84
2019-05-23T01:00:43.313Z,3.68
2019-05-23T01:00:48.310Z,3.63
2019-05-23T01:00:53.368Z,4.79
2019-05-23T01:00:58.314Z,6.04
2019-05-23T01:01:03.315Z,6.24
2019-05-23T01:01:08.315Z,4.84
2019-05-23T01:01:13.317Z,4.47
2019-05-23T01:01:18.317Z,3.88
2019-05-23T01:01:23.401Z,3.69
2019-05-23T01:01:28.320Z,4.00
2019-05-23T01:01:33.321Z,3.73
2019-05-23T01:01:38.344Z,3.64
2019-05-23T01:01:43.608Z,4.19
2019-05-23T01:01:48.701Z,4.25
2019-05-23T01:01:53.327Z,3.81
2019-05-23T01:01:58.793Z,4.54
2019-05-23T01:02:03.326Z,4.78
2019-05-23T01:02:08.329Z,4.74
2019-05-23T01:02:13.526Z,4.27
2019-05-23T01:02:18.332Z,5.00
2019-05-23T01:02:23.337Z,6.18
2019-05-23T01:02:28.450Z,6.15
2019-05-23T01:02:33.330Z,5.67
2019-05-23T01:02:38.337Z,5.22
2019-05-23T01:02:43.338Z,5.80
2019-05-23T01:02:48.334Z,5.26
2019-05-23T01:02:53.335Z,5.48
2019-05-23T01:02:58.336Z,5.92
2019-05-23T01:03:03.336Z,6.06
2019-05-23T01:03:08.339Z,6.37
2019-05-23T01:03:13.341Z,6.56
2019-05-23T01:03:18.341Z,6.41
2019-05-23T01:03:23.351Z,6.00
2019-05-23T01:03:28.345Z,5.33
2019-05-23T01:03:33.346Z,6.13
2019-05-23T01:03:38.345Z,5.90
2019-05-23T01:03:43.345Z,5.54
2019-05-23T01:03:48.350Z,5.90
2019-05-23T01:03:53.348Z,5.90
2019-05-23T01:03:58.348Z,6.31
2019-05-23T01:04:03.349Z,6.19
2019-05-23T01:04:08.350Z,6.15
2019-05-23T01:04:13.351Z,6.86
2019-05-23T01:04:18.356Z,7.09
2019-05-23T01:04:23.354Z,6.79
2019-05-23T01:04:28.354Z,5.98
2019-05-23T01:04:33.358Z,5.86
2019-05-23T01:04:38.357Z,5.67
2019-05-23T01:04:43.382Z,6.24
2019-05-23T01:04:48.613Z,6.13
2019-05-23T01:04:53.358Z,6.55
2019-05-23T01:04:58.365Z,5.66
2019-05-23T01:05:03.362Z,4.99
2019-05-23T01:05:08.362Z,5.00
2019-05-23T01:05:13.364Z,6.02
2019-05-23T01:05:18.363Z,5.94
2019-05-23T01:05:23.365Z,5.84
2019-05-23T01:05:28.367Z,5.28
2019-05-23T01:05:33.366Z,5.63
2019-05-23T01:05:38.367Z,4.72
2019-05-23T01:05:43.368Z,4.54
2019-05-23T01:05:48.370Z,5.09
2019-05-23T01:05:53.371Z,5.75
2019-05-23T01:05:58.372Z,5.85
2019-05-23T01:06:03.372Z,5.89
2019-05-23T01:06:08.373Z,5.29
2019-05-23T01:06:13.379Z,5.63
2019-05-23T01:06:18.375Z,5.45
2019-05-23T01:06:23.379Z,5.15
2019-05-23T01:06:28.377Z,5.35
2019-05-23T01:06:33.378Z,5.04
2019-05-23T01:06:38.379Z,5.55